createdAt,value
2017-08-19T00:01:15.200Z,18.70
2017-08-19T00:03:42.827Z,18.60
2017-08-19T00:06:10.357Z,18.60
2017-08-19T00:08:37.901Z,18.60
2017-08-19T00:11:05.416Z,18.50
2017-08-19T00:13:32.956Z,18.40
2017-08-19T00:16:00.483Z,18.30
2017-08-19T00:18:28.071Z,18.30
2017-08-19T00:20:55.579Z,18.30
2017-08-19T00:23:23.096Z,18.30
2017-08-19T00:25:50.604Z,18.20
2017-08-19T00:28:18.456Z,18.20
2017-08-19T00:30:45.990Z,18.30
2017-08-19T00:33:13.519Z,18.30
2017-08-19T00:35:41.033Z,18.30
2017-08-19T00:38:08.578Z,18.30
2017-08-19T00:40:36.827Z,18.30
2017-08-19T00:43:04.360Z,18.30
2017-08-19T00:45:31.893Z,18.30
2017-08-19T00:47:59.425Z,18.30
2017-08-19T00:50:27.713Z,18.10
2017-08-19T00:52:56.045Z,18.10
2017-08-19T00:55:23.551Z,18.10
2017-08-19T00:57:51.054Z,18.10
2017-08-19T01:00:18.560Z,18.00
2017-08-19T01:02:46.845Z,18.00
2017-08-19T01:05:15.115Z,18.00
2017-08-19T01:07:43.414Z,18.00
2017-08-19T01:10:10.955Z,18.00
2017-08-19T01:12:38.486Z,18.00
2017-08-19T01:15:05.967Z,18.00
2017-08-19T01:17:34.256Z,18.10
2017-08-19T01:20:01.813Z,18.10
2017-08-19T01:22:29.343Z,18.00
2017-08-19T01:25:08.613Z,18.00
2017-08-19T01:27:36.119Z,18.00
2017-08-19T01:30:03.622Z,18.00
2017-08-19T01:32:31.912Z,18.00
2017-08-19T01:34:59.425Z,18.00
2017-08-19T01:37:27.063Z,18.00
2017-08-19T01:39:54.573Z,18.00
2017-08-19T01:42:22.097Z,18.10
2017-08-19T01:44:49.634Z,18.10
2017-08-19T01:47:17.159Z,18.20
2017-08-19T01:49:44.670Z,18.20
2017-08-19T01:52:12.149Z,18.20
2017-08-19T01:54:39.656Z,18.20
2017-08-19T01:57:07.176Z,18.20
2017-08-19T01:59:34.682Z,18.20
2017-08-19T02:02:02.226Z,18.20
2017-08-19T02:04:29.755Z,18.10
2017-08-19T02:06:57.287Z,18.10
2017-08-19T02:09:24.770Z,18.00
2017-08-19T02:11:52.315Z,18.00
2017-08-19T02:14:19.804Z,18.00
2017-08-19T02:16:47.352Z,17.90
2017-08-19T02:19:14.912Z,17.90
2017-08-19T02:21:42.452Z,17.80
2017-08-19T02:24:09.977Z,17.80
2017-08-19T02:26:37.491Z,17.80
2017-08-19T02:29:04.989Z,17.70
2017-08-19T02:31:32.495Z,17.80
2017-08-19T02:34:00.002Z,17.70
2017-08-19T02:36:27.528Z,17.70
2017-08-19T02:38:55.053Z,17.70
2017-08-19T02:41:23.364Z,17.70
2017-08-19T02:43:51.164Z,17.70
2017-08-19T02:46:18.680Z,17.70
2017-08-19T02:48:46.182Z,17.70
2017-08-19T02:51:13.687Z,17.70
2017-08-19T02:53:41.204Z,17.70
2017-08-19T02:56:08.732Z,17.70
2017-08-19T02:58:36.288Z,17.60
2017-08-19T03:01:03.866Z,17.60
2017-08-19T03:03:31.411Z,17.60
2017-08-19T03:05:58.929Z,17.50
2017-08-19T03:08:26.435Z,17.50
2017-08-19T03:10:54.776Z,17.60
2017-08-19T03:13:22.309Z,17.60
2017-08-19T03:15:49.906Z,17.60
2017-08-19T03:18:17.432Z,17.60
2017-08-19T03:20:45.024Z,17.60
2017-08-19T03:23:12.561Z,17.70
2017-08-19T03:25:40.061Z,17.70
2017-08-19T03:28:08.366Z,17.60
2017-08-19T03:30:35.901Z,17.60
2017-08-19T03:33:03.408Z,17.60
2017-08-19T03:35:30.949Z,17.50
2017-08-19T03:37:58.512Z,17.40
2017-08-19T03:40:26.015Z,17.50
2017-08-19T03:42:53.525Z,17.50
2017-08-19T03:45:21.039Z,17.50
2017-08-19T03:47:48.564Z,17.50
2017-08-19T03:50:16.090Z,17.60
2017-08-19T03:52:44.377Z,17.60
2017-08-19T03:55:11.877Z,17.60
2017-08-19T03:57:39.367Z,17.60
2017-08-19T04:00:06.896Z,17.70
2017-08-19T04:02:34.414Z,17.70
2017-08-19T04:05:02.692Z,17.70
2017-08-19T04:07:31.096Z,17.70
2017-08-19T04:09:58.617Z,17.70
2017-08-19T04:12:26.895Z,17.60
2017-08-19T04:14:55.266Z,17.60
2017-08-19T04:17:22.802Z,17.60
2017-08-19T04:19:50.298Z,17.60
2017-08-19T04:22:18.565Z,17.60
2017-08-19T04:24:46.826Z,17.60
2017-08-19T04:27:14.346Z,17.60
2017-08-19T04:29:41.841Z,17.70
2017-08-19T04:32:09.366Z,17.70
2017-08-19T04:34:36.848Z,17.70
2017-08-19T04:37:04.336Z,17.70
2017-08-19T04:39:32.629Z,17.70
2017-08-19T04:42:00.935Z,17.60
2017-08-19T04:44:28.443Z,17.60
2017-08-19T04:46:55.960Z,17.60
2017-08-19T04:49:23.468Z,17.60
2017-08-19T04:51:50.980Z,17.60
2017-08-19T04:54:18.475Z,17.60
2017-08-19T04:56:45.971Z,17.60
2017-08-19T04:59:13.493Z,17.70
2017-08-19T05:01:40.986Z,17.70
2017-08-19T05:04:08.470Z,17.70
2017-08-19T05:06:36.039Z,17.70
2017-08-19T05:09:03.527Z,17.60
2017-08-19T05:11:31.024Z,17.50
2017-08-19T05:13:58.550Z,17.50
2017-08-19T05:16:26.050Z,17.60
2017-08-19T05:18:53.570Z,17.50
2017-08-19T05:21:21.096Z,17.40
2017-08-19T05:23:48.626Z,17.40
2017-08-19T05:26:16.142Z,17.40
2017-08-19T05:28:43.647Z,17.40
2017-08-19T05:31:11.188Z,17.40
2017-08-19T05:33:38.725Z,17.40
2017-08-19T05:36:06.216Z,17.30
2017-08-19T05:38:33.803Z,17.40
2017-08-19T05:41:01.312Z,17.40
2017-08-19T05:43:29.899Z,17.50
2017-08-19T05:45:57.424Z,17.50
2017-08-19T05:48:24.927Z,17.50
2017-08-19T05:50:53.278Z,17.50
2017-08-19T05:53:20.816Z,17.50
2017-08-19T05:55:48.311Z,17.50
2017-08-19T05:58:15.812Z,17.60
2017-08-19T06:00:43.314Z,17.60
2017-08-19T06:03:10.838Z,17.60
2017-08-19T06:05:38.369Z,17.70
2017-08-19T06:08:05.899Z,17.60
2017-08-19T06:10:33.453Z,17.60
2017-08-19T06:13:00.963Z,17.60
2017-08-19T06:15:28.503Z,17.60
2017-08-19T06:17:56.035Z,17.40
2017-08-19T06:20:23.573Z,17.50
2017-08-19T06:22:51.063Z,17.60
2017-08-19T06:25:18.581Z,17.60
2017-08-19T06:27:46.168Z,17.60
2017-08-19T06:30:13.668Z,17.60
2017-08-19T06:32:41.198Z,17.60
2017-08-19T06:35:08.739Z,17.50
2017-08-19T06:37:36.269Z,17.40
2017-08-19T06:40:03.791Z,17.50
2017-08-19T06:42:31.327Z,17.50
2017-08-19T06:44:58.866Z,17.30
2017-08-19T06:47:26.363Z,17.30
2017-08-19T06:49:54.728Z,17.20
2017-08-19T06:52:22.858Z,17.20
2017-08-19T06:54:51.186Z,17.10
2017-08-19T06:57:18.683Z,17.20
2017-08-19T06:59:46.206Z,17.20
2017-08-19T07:02:13.760Z,17.30
2017-08-19T07:04:41.256Z,17.30
2017-08-19T07:07:08.766Z,17.30
2017-08-19T07:09:36.273Z,17.30
2017-08-19T07:12:03.771Z,17.30
2017-08-19T07:14:31.294Z,17.30
2017-08-19T07:16:58.818Z,17.40
2017-08-19T07:19:26.336Z,17.50
2017-08-19T07:21:53.838Z,17.50
2017-08-19T07:24:21.356Z,17.40
2017-08-19T07:26:48.887Z,17.40
2017-08-19T07:29:16.438Z,17.30
2017-08-19T07:31:44.723Z,17.10
2017-08-19T07:34:12.238Z,17.20
2017-08-19T07:36:39.951Z,17.20
2017-08-19T07:39:07.455Z,17.30
2017-08-19T07:41:34.967Z,17.40
2017-08-19T07:44:02.563Z,17.60
2017-08-19T07:46:30.070Z,17.60
2017-08-19T07:48:58.345Z,17.70
2017-08-19T07:51:26.615Z,17.70
2017-08-19T07:53:54.910Z,17.70
2017-08-19T07:56:22.422Z,17.60
2017-08-19T07:58:49.926Z,17.60
2017-08-19T08:01:17.463Z,17.60
2017-08-19T08:03:44.955Z,17.70
2017-08-19T08:06:12.449Z,17.90
2017-08-19T08:08:39.938Z,17.90
2017-08-19T08:11:07.453Z,18.00
2017-08-19T08:13:34.961Z,17.90
2017-08-19T08:16:02.461Z,17.90
2017-08-19T08:18:29.990Z,17.80
2017-08-19T08:20:57.512Z,17.80
2017-08-19T08:23:25.016Z,17.90
2017-08-19T08:25:53.276Z,18.20
2017-08-19T08:28:21.523Z,18.40
2017-08-19T08:30:49.053Z,18.40
2017-08-19T08:33:16.684Z,18.40
2017-08-19T08:35:44.983Z,18.30
2017-08-19T08:38:12.526Z,18.20
2017-08-19T08:40:40.040Z,18.30
2017-08-19T08:43:07.571Z,18.40
2017-08-19T08:45:35.076Z,18.60
2017-08-19T08:48:02.603Z,18.50
2017-08-19T08:50:30.110Z,18.60
2017-08-19T08:52:58.399Z,18.50
2017-08-19T08:55:26.676Z,18.40
2017-08-19T08:57:54.945Z,18.40
2017-08-19T09:00:23.287Z,18.20
2017-08-19T09:02:50.790Z,18.20
2017-08-19T09:05:18.301Z,18.20
2017-08-19T09:07:45.890Z,18.20
2017-08-19T09:10:13.405Z,18.10
2017-08-19T09:12:40.910Z,18.10
2017-08-19T09:15:08.434Z,18.10
2017-08-19T09:17:35.934Z,18.20
2017-08-19T09:20:03.511Z,18.20
2017-08-19T09:22:31.080Z,18.30
2017-08-19T09:24:59.766Z,18.40
2017-08-19T09:27:27.358Z,18.60
2017-08-19T09:29:54.865Z,18.60
2017-08-19T09:32:22.777Z,18.70
2017-08-19T09:34:50.346Z,18.60
2017-08-19T09:37:17.861Z,18.60
2017-08-19T09:39:45.885Z,18.70
2017-08-19T09:42:13.400Z,18.60
2017-08-19T09:44:40.892Z,18.80
2017-08-19T09:47:08.397Z,19.00
2017-08-19T09:49:36.801Z,19.30
2017-08-19T09:52:04.345Z,19.30
2017-08-19T09:54:32.704Z,19.50
2017-08-19T09:57:00.272Z,19.50
2017-08-19T09:59:27.818Z,19.60
2017-08-19T10:01:55.335Z,19.60
2017-08-19T10:04:22.840Z,19.70
2017-08-19T10:06:50.375Z,19.80
2017-08-19T10:09:29.607Z,19.80
2017-08-19T10:11:57.124Z,19.90
2017-08-19T10:14:25.408Z,19.80
2017-08-19T10:16:52.996Z,19.80
2017-08-19T10:19:20.579Z,19.80
2017-08-19T10:21:48.169Z,19.80
2017-08-19T10:24:15.733Z,19.80
2017-08-19T10:26:43.463Z,20.00
2017-08-19T10:29:10.964Z,20.10
2017-08-19T10:31:39.292Z,20.10
2017-08-19T10:34:06.868Z,20.10
2017-08-19T10:36:34.355Z,20.10
2017-08-19T10:39:02.636Z,21.10
2017-08-19T10:41:30.980Z,21.70
2017-08-19T10:43:58.626Z,21.70
2017-08-19T10:46:26.120Z,22.50
2017-08-19T10:48:53.693Z,23.30
2017-08-19T10:51:21.978Z,24.00
2017-08-19T10:53:51.282Z,24.40
2017-08-19T10:56:18.786Z,24.40
2017-08-19T10:58:46.335Z,25.80
2017-08-19T11:01:13.842Z,26.00
2017-08-19T11:03:42.162Z,24.70
2017-08-19T11:06:09.659Z,24.60
2017-08-19T11:08:37.163Z,24.60
2017-08-19T11:11:04.685Z,24.40
2017-08-19T11:13:32.245Z,24.20
2017-08-19T11:15:59.755Z,24.30
2017-08-19T11:18:27.281Z,23.80
2017-08-19T11:20:54.888Z,23.70
2017-08-19T11:23:22.416Z,23.80
2017-08-19T11:25:49.998Z,24.60
2017-08-19T11:28:17.569Z,25.00
2017-08-19T11:30:45.097Z,25.60
2017-08-19T11:33:12.616Z,25.30
2017-08-19T11:35:40.176Z,25.80
2017-08-19T11:38:07.726Z,27.50
2017-08-19T11:40:35.213Z,27.90
2017-08-19T11:43:02.796Z,26.70
2017-08-19T11:45:30.302Z,26.30
2017-08-19T11:47:57.804Z,25.50
2017-08-19T11:50:25.283Z,25.90
2017-08-19T11:52:52.811Z,27.10
2017-08-19T11:55:20.321Z,28.00
2017-08-19T11:57:47.851Z,28.00
2017-08-19T12:00:15.372Z,26.90
2017-08-19T12:02:42.889Z,25.80
2017-08-19T12:05:10.485Z,26.20
2017-08-19T12:07:38.053Z,27.60
2017-08-19T12:10:05.567Z,28.90
2017-08-19T12:12:33.107Z,30.50
2017-08-19T12:15:00.623Z,29.70
2017-08-19T12:17:28.136Z,28.60
2017-08-19T12:19:55.727Z,27.60
2017-08-19T12:22:23.247Z,27.40
2017-08-19T12:24:50.761Z,26.60
2017-08-19T12:27:18.333Z,25.60
2017-08-19T12:29:45.950Z,25.00
2017-08-19T12:32:13.439Z,24.20
2017-08-19T12:34:40.938Z,24.50
2017-08-19T12:37:09.252Z,24.70
2017-08-19T12:39:36.879Z,24.70
2017-08-19T12:42:05.161Z,25.40
2017-08-19T12:44:32.668Z,25.40
2017-08-19T12:47:00.166Z,25.40
2017-08-19T12:49:27.680Z,25.70
2017-08-19T12:51:55.240Z,25.00
2017-08-19T12:54:22.745Z,24.30
2017-08-19T12:56:50.254Z,23.60
2017-08-19T12:59:17.778Z,23.40
2017-08-19T13:01:45.286Z,23.20
2017-08-19T13:04:12.791Z,23.20
2017-08-19T13:06:41.891Z,23.60
2017-08-19T13:09:09.389Z,23.60
2017-08-19T13:11:36.889Z,23.40
2017-08-19T13:14:04.412Z,23.20
2017-08-19T13:16:31.937Z,23.30
2017-08-19T13:18:59.491Z,23.20
2017-08-19T13:21:27.790Z,22.90
2017-08-19T13:23:55.305Z,22.70
2017-08-19T13:26:22.842Z,22.80
2017-08-19T13:28:50.359Z,23.50
2017-08-19T13:31:17.871Z,23.80
2017-08-19T13:33:45.390Z,24.30
2017-08-19T13:36:12.910Z,24.00
2017-08-19T13:41:18.000Z,23.40
2017-08-19T13:43:45.542Z,23.50
2017-08-19T13:46:13.023Z,23.60
2017-08-19T13:48:40.572Z,23.60
2017-08-19T13:51:08.072Z,23.30
2017-08-19T13:53:35.569Z,23.20
2017-08-19T13:56:03.898Z,22.90
2017-08-19T13:58:31.535Z,22.90
2017-08-19T14:00:59.082Z,23.10
2017-08-19T14:03:26.619Z,23.50
2017-08-19T14:05:54.887Z,23.20
2017-08-19T14:08:23.160Z,23.00
2017-08-19T14:10:51.460Z,22.70
2017-08-19T14:13:19.720Z,22.80
2017-08-19T14:15:47.998Z,23.00
2017-08-19T14:18:16.240Z,22.90
2017-08-19T14:20:43.753Z,23.00
2017-08-19T14:23:11.244Z,22.90
2017-08-19T14:25:38.996Z,22.80
2017-08-19T14:28:06.501Z,22.50
2017-08-19T14:30:34.008Z,22.50
2017-08-19T14:33:01.510Z,22.40
2017-08-19T14:35:29.010Z,22.50
2017-08-19T14:37:56.576Z,22.50
2017-08-19T14:40:24.151Z,22.50
2017-08-19T14:42:51.649Z,22.50
2017-08-19T14:45:19.162Z,22.40
2017-08-19T14:47:46.667Z,22.20
2017-08-19T14:50:14.186Z,22.10
2017-08-19T14:52:41.854Z,22.00
2017-08-19T14:55:09.363Z,22.10
2017-08-19T14:57:36.843Z,22.20
2017-08-19T15:00:04.625Z,22.00
2017-08-19T15:02:32.140Z,21.90
2017-08-19T15:04:59.632Z,21.90
2017-08-19T15:07:27.450Z,21.90
2017-08-19T15:09:54.957Z,21.80
2017-08-19T15:12:22.487Z,21.90
2017-08-19T15:14:50.024Z,21.90
2017-08-19T15:17:17.522Z,22.10
2017-08-19T15:19:45.784Z,22.20
2017-08-19T15:22:13.394Z,22.20
2017-08-19T15:24:41.192Z,22.30
2017-08-19T15:27:08.819Z,22.20
2017-08-19T15:29:36.344Z,22.30
2017-08-19T15:32:03.861Z,22.30
2017-08-19T15:34:31.378Z,22.40
2017-08-19T15:36:58.912Z,22.50
2017-08-19T15:39:26.432Z,22.50
2017-08-19T15:41:53.963Z,22.70
2017-08-19T15:44:21.479Z,22.90
2017-08-19T15:46:48.974Z,23.10
2017-08-19T15:49:16.831Z,23.40
2017-08-19T15:51:44.359Z,23.60
2017-08-19T15:54:11.875Z,23.70
2017-08-19T15:56:39.403Z,23.70
2017-08-19T15:59:07.059Z,23.40
2017-08-19T16:01:34.560Z,23.40
2017-08-19T16:04:02.066Z,23.30
2017-08-19T16:06:29.580Z,23.30
2017-08-19T16:08:57.108Z,23.20
2017-08-19T16:11:24.643Z,23.10
2017-08-19T16:13:52.159Z,23.10
2017-08-19T16:16:19.712Z,23.00
2017-08-19T16:18:47.224Z,22.90
2017-08-19T16:21:14.751Z,22.80
2017-08-19T16:23:42.281Z,22.70
2017-08-19T16:26:09.767Z,22.70
2017-08-19T16:28:37.269Z,22.80
2017-08-19T16:31:05.547Z,22.80
2017-08-19T16:33:33.860Z,22.90
2017-08-19T16:36:01.421Z,22.90
2017-08-19T16:38:28.949Z,22.80
2017-08-19T16:40:57.214Z,22.50
2017-08-19T16:43:24.722Z,22.50
2017-08-19T16:45:52.283Z,22.40
2017-08-19T16:48:19.806Z,22.20
2017-08-19T16:50:48.094Z,22.00
2017-08-19T16:53:16.354Z,21.90
2017-08-19T16:55:43.896Z,21.90
2017-08-19T16:58:11.507Z,21.90
2017-08-19T17:00:39.770Z,21.90
2017-08-19T17:03:08.048Z,21.90
2017-08-19T17:05:36.323Z,21.90
2017-08-19T17:08:04.617Z,21.90
2017-08-19T17:10:32.148Z,21.80
2017-08-19T17:12:59.662Z,21.70
2017-08-19T17:15:27.495Z,21.80
2017-08-19T17:17:55.005Z,21.80
2017-08-19T17:20:23.779Z,21.80
2017-08-19T17:22:51.292Z,21.70
2017-08-19T17:25:18.808Z,21.70
2017-08-19T17:27:46.345Z,21.60
2017-08-19T17:30:13.854Z,21.50
2017-08-19T17:32:41.341Z,21.50
2017-08-19T17:35:08.881Z,21.50
2017-08-19T17:37:37.209Z,21.50
2017-08-19T17:40:04.705Z,21.50
2017-08-19T17:42:32.234Z,21.50
2017-08-19T17:44:59.733Z,21.40
2017-08-19T17:47:28.045Z,21.50
2017-08-19T17:49:55.635Z,21.40
2017-08-19T17:52:23.124Z,21.50
2017-08-19T17:54:50.638Z,21.40
2017-08-19T17:57:18.188Z,21.40
2017-08-19T17:59:45.705Z,21.40
2017-08-19T18:02:14.003Z,21.30
2017-08-19T18:04:41.542Z,21.30
2017-08-19T18:07:09.150Z,21.30
2017-08-19T18:09:36.676Z,21.30
2017-08-19T18:12:04.176Z,21.30
2017-08-19T18:14:31.680Z,21.10
2017-08-19T18:17:00.021Z,21.20
2017-08-19T18:19:27.568Z,21.20
2017-08-19T18:21:55.414Z,21.10
2017-08-19T18:24:23.221Z,20.90
2017-08-19T18:26:50.741Z,20.90
2017-08-19T18:29:18.625Z,20.80
2017-08-19T18:31:46.132Z,20.70
2017-08-19T18:34:13.682Z,20.60
2017-08-19T18:36:41.209Z,20.60
2017-08-19T18:39:08.718Z,20.60
2017-08-19T18:41:37.023Z,20.50
2017-08-19T18:44:04.537Z,20.40
2017-08-19T18:46:32.139Z,20.50
2017-08-19T18:48:59.654Z,20.50
2017-08-19T18:51:27.182Z,20.50
2017-08-19T18:53:54.689Z,20.50
2017-08-19T18:56:22.194Z,20.40
2017-08-19T18:58:49.829Z,20.40
2017-08-19T19:01:18.106Z,20.20
2017-08-19T19:03:46.375Z,20.20
2017-08-19T19:06:14.679Z,20.10
2017-08-19T19:08:42.239Z,20.10
2017-08-19T19:11:10.014Z,20.10
2017-08-19T19:13:37.561Z,20.10
2017-08-19T19:16:05.082Z,20.10
2017-08-19T19:18:32.693Z,20.00
2017-08-19T19:21:00.203Z,20.00
2017-08-19T19:23:27.705Z,20.00
2017-08-19T19:25:55.261Z,20.00
2017-08-19T19:28:22.816Z,19.90
2017-08-19T19:30:50.338Z,20.00
2017-08-19T19:33:17.949Z,19.90
2017-08-19T19:35:45.458Z,19.90
2017-08-19T19:38:12.968Z,19.90
2017-08-19T19:40:40.479Z,19.90
2017-08-19T19:43:08.010Z,19.90
2017-08-19T19:45:35.524Z,19.80
2017-08-19T19:48:03.054Z,19.80
2017-08-19T19:53:04.528Z,19.80
2017-08-19T19:55:32.043Z,19.70
2017-08-19T19:57:59.556Z,19.60
2017-08-19T20:00:27.068Z,19.60
2017-08-19T20:02:54.562Z,19.60
2017-08-19T20:05:22.110Z,19.60
2017-08-19T20:07:49.650Z,19.60
2017-08-19T20:10:17.180Z,19.60
2017-08-19T20:12:44.815Z,19.60
2017-08-19T20:15:13.095Z,19.50
2017-08-19T20:17:41.883Z,19.50
2017-08-19T20:20:09.521Z,19.50
2017-08-19T20:22:37.687Z,19.40
2017-08-19T20:25:05.310Z,19.30
2017-08-19T20:27:32.856Z,19.40
2017-08-19T20:30:01.296Z,19.40
2017-08-19T20:32:28.929Z,19.40
2017-08-19T20:34:56.440Z,19.40
2017-08-19T20:37:24.726Z,19.30
2017-08-19T20:39:53.014Z,19.30
2017-08-19T20:42:20.532Z,19.30
2017-08-19T20:44:48.063Z,19.20
2017-08-19T20:47:15.561Z,19.20
2017-08-19T20:49:43.110Z,19.10
2017-08-19T20:52:10.736Z,19.10
2017-08-19T20:54:38.258Z,18.90
2017-08-19T20:57:05.776Z,18.90
2017-08-19T20:59:33.329Z,18.90
2017-08-19T21:02:00.855Z,18.90
2017-08-19T21:04:28.363Z,18.90
2017-08-19T21:06:55.877Z,18.80
2017-08-19T21:09:23.395Z,18.70
2017-08-19T21:11:50.930Z,18.70
2017-08-19T21:14:18.549Z,18.70
2017-08-19T21:16:46.067Z,18.70
2017-08-19T21:19:13.575Z,18.60
2017-08-19T21:21:41.144Z,18.60
2017-08-19T21:24:08.666Z,18.60
2017-08-19T21:26:37.020Z,18.40
2017-08-19T21:29:04.526Z,18.40
2017-08-19T21:31:32.068Z,18.40
2017-08-19T21:34:00.502Z,18.30
2017-08-19T21:36:28.054Z,18.30
2017-08-19T21:38:55.563Z,18.30
2017-08-19T21:41:23.100Z,18.30
2017-08-19T21:43:50.626Z,18.20
2017-08-19T21:46:18.162Z,18.30
2017-08-19T21:48:45.675Z,18.20
2017-08-19T21:51:13.248Z,18.20
2017-08-19T21:53:40.767Z,18.20
2017-08-19T21:56:08.370Z,18.20
2017-08-19T21:58:35.964Z,18.20
2017-08-19T22:01:03.452Z,18.10
2017-08-19T22:03:31.008Z,18.10
2017-08-19T22:05:58.526Z,18.00
2017-08-19T22:08:26.865Z,18.00
2017-08-19T22:10:54.473Z,17.90
2017-08-19T22:13:22.857Z,18.00
2017-08-19T22:15:50.385Z,18.00
2017-08-19T22:18:17.911Z,18.00
2017-08-19T22:20:45.465Z,18.00
2017-08-19T22:23:12.980Z,18.00
2017-08-19T22:25:40.490Z,17.90
2017-08-19T22:28:08.060Z,18.00
2017-08-19T22:30:35.550Z,17.90
2017-08-19T22:33:03.139Z,17.90
2017-08-19T22:35:30.665Z,17.90
2017-08-19T22:37:58.166Z,17.90
2017-08-19T22:40:25.683Z,17.90
2017-08-19T22:42:53.192Z,17.90
2017-08-19T22:45:20.729Z,17.90
2017-08-19T22:47:48.306Z,17.90
2017-08-19T22:50:16.123Z,17.90
2017-08-19T22:52:43.646Z,17.80
2017-08-19T22:55:14.717Z,17.80
2017-08-19T22:57:42.261Z,17.70
2017-08-19T23:00:09.769Z,17.60
2017-08-19T23:02:38.026Z,17.60
2017-08-19T23:05:06.318Z,17.50
2017-08-19T23:07:34.617Z,17.40
2017-08-19T23:10:02.158Z,17.40
2017-08-19T23:12:29.669Z,17.40
2017-08-19T23:14:57.218Z,17.30
2017-08-19T23:17:24.755Z,17.30
2017-08-19T23:19:52.904Z,17.20
2017-08-19T23:22:20.444Z,17.20
2017-08-19T23:24:48.001Z,17.20
2017-08-19T23:27:15.517Z,17.20
2017-08-19T23:29:43.049Z,17.10
2017-08-19T23:32:10.577Z,17.10
2017-08-19T23:34:38.114Z,17.10
2017-08-19T23:37:05.602Z,17.10
2017-08-19T23:39:33.092Z,17.00
2017-08-19T23:42:00.594Z,17.00
2017-08-19T23:44:28.286Z,17.10
2017-08-19T23:46:55.854Z,17.10
2017-08-19T23:49:23.512Z,17.10
2017-08-19T23:51:50.987Z,17.10
2017-08-19T23:54:18.526Z,17.10
2017-08-19T23:56:46.109Z,17.10
2017-08-19T23:59:13.628Z,17.10
